100LL.CA
Aviation Fuel Pricing for Canadians
Please upgrade your browser - Tested with IE9, FireFox, Chrome, Safari

Fuel Prices Airport Info Airport List METAR / TAF Kneeboard RSS

Reference Airport: Langley Regional, BC
N 49 06 03   W 122 37 51

Enter a list of
Airport Idents:
Sort Method: As Entered    By Ident   

CYVR
METAR CYVR 271900Z 24005KT 30SM FEW220 19/12 A3010 RMK CI1 SLP195 DENSITY ALT 200FT
TAF CYVR 271741Z 2718/2824 26005KT P6SM FEW240 BECMG 2803/2805 VRB03KT BECMG 2816/2818 26008KT RMK NXT FCST BY 272100Z
CYXX
METAR CYXX 271900Z 15004KT 030V180 30SM FEW230 24/11 A3009 RMK CI1 SLP190 DENSITY ALT 1000FT
TAF CYXX 271741Z 2718/2818 VRB03KT P6SM FEW240 BECMG 2719/2721 23008KT BECMG 2803/2805 VRB03KT RMK NXT FCST BY 280000Z
KBLI
METAR KBLI 271853Z VRB05KT 10SM CLR 23/11 A3010 RMK AO2 SLP197 T02280111
TAF KBLI 271725Z 2718/2818 VRB04KT P6SM SKC FM272100 25006KT P6SM SKC FM280300 VRB03KT P6SM SKC